Time;durP1;ratioP1;P1;durP2;ratioP2;P2;SDS_P1;SDS_P2;PMS_P1;PMS_P2;Temp;Humidity;BMP_temperature;BMP_pressure;BME280_temperature;BME280_humidity;BME280_pressure;Samples;Min_cycle;Max_cycle;Signal;HPM_P1;HPM_P2
2022/10/16 00:01:11;;;;;;;;;;;15.80;99.90;;;;;;5082981;28;19915;-73
2022/10/16 00:03:41;;;;;;;;;;;15.80;99.90;;;;;;5065857;28;20084;-74
2022/10/16 00:06:07;;;;;;;;;;;15.80;99.90;;;;;;5082731;28;19912;-73
2022/10/16 00:08:32;;;;;;;;;;;15.70;99.90;;;;;;5064313;28;19916;-73
2022/10/16 00:11:00;;;;;;;;;;;15.80;99.90;;;;;;5081811;28;19924;-73
2022/10/16 00:13:25;;;;;;;;;;;15.80;99.90;;;;;;5081505;28;19916;-73
2022/10/16 00:15:54;;;;;;;;;;;15.80;99.90;;;;;;5081670;28;19915;-73
2022/10/16 00:18:20;;;;;;;;;;;15.80;99.90;;;;;;5065020;28;19975;-73
2022/10/16 00:20:45;;;;;;;;;;;15.70;99.90;;;;;;5082754;28;20146;-74
2022/10/16 00:23:11;;;;;;;;;;;15.80;99.90;;;;;;5081203;28;19915;-73
2022/10/16 00:25:37;;;;;;;;;;;15.80;99.90;;;;;;5082668;28;19918;-73
2022/10/16 00:28:02;;;;;;;;;;;15.70;99.90;;;;;;5082430;28;19936;-73
2022/10/16 00:30:28;;;;;;;;;;;15.70;99.90;;;;;;5082464;28;20254;-74
2022/10/16 00:32:55;;;;;;;;;;;15.70;99.90;;;;;;5082637;28;19967;-74
2022/10/16 00:35:21;;;;;;;;;;;15.70;99.90;;;;;;5082589;28;19908;-74
2022/10/16 00:37:47;;;;;;;;;;;15.70;99.90;;;;;;5082030;28;19912;-74
2022/10/16 00:40:12;;;;;;;;;;;15.70;99.90;;;;;;5082336;28;19908;-75
2022/10/16 00:42:38;;;;;;;;;;;15.70;99.90;;;;;;5082509;28;19923;-73
2022/10/16 00:45:04;;;;;;;;;;;15.70;99.90;;;;;;5080984;28;19920;-73
2022/10/16 00:47:38;;;;;;;;;;;15.70;99.90;;;;;;5081258;28;19909;-73
2022/10/16 00:50:13;;;;;;;;;;;15.70;99.90;;;;;;5081275;28;19916;-73
2022/10/16 00:52:40;;;;;;;;;;;15.70;99.90;;;;;;5064901;28;20107;-74
2022/10/16 00:55:06;;;;;;;;;;;15.70;99.90;;;;;;5081019;28;19908;-74
2022/10/16 00:57:31;;;;;;;;;;;15.80;99.90;;;;;;5080809;28;20199;-74
2022/10/16 00:59:57;;;;;;;;;;;15.80;99.90;;;;;;5082072;28;19909;-74
2022/10/16 01:02:23;;;;;;;;;;;15.80;99.90;;;;;;5081134;28;19915;-74
2022/10/16 01:04:50;;;;;;;;;;;15.70;99.90;;;;;;5082203;28;19921;-73
2022/10/16 01:07:27;;;;;;;;;;;15.80;99.90;;;;;;5080921;28;19908;-74
2022/10/16 01:10:18;;;;;;;;;;;15.80;99.90;;;;;;5064824;28;19965;-73
2022/10/16 01:12:56;;;;;;;;;;;15.70;99.90;;;;;;5081395;28;19908;-74
2022/10/16 01:15:26;;;;;;;;;;;15.70;99.90;;;;;;5084752;28;19920;-74
2022/10/16 01:18:02;;;;;;;;;;;15.70;99.90;;;;;;5085783;28;19912;-74
2022/10/16 01:20:34;;;;;;;;;;;15.70;99.90;;;;;;5085243;28;19935;-74
2022/10/16 01:23:24;;;;;;;;;;;15.70;99.90;;;;;;5084927;28;19915;-74
2022/10/16 01:25:59;;;;;;;;;;;15.70;99.90;;;;;;5085979;28;19919;-73
2022/10/16 01:28:28;;;;;;;;;;;15.80;99.90;;;;;;5085803;28;19939;-73
2022/10/16 01:30:55;;;;;;;;;;;15.70;99.90;;;;;;5068141;28;19916;-73
2022/10/16 01:33:23;;;;;;;;;;;15.80;99.90;;;;;;5067990;28;19915;-73
2022/10/16 01:35:52;;;;;;;;;;;15.70;99.90;;;;;;5084694;28;19920;-74
2022/10/16 01:38:26;;;;;;;;;;;15.70;99.90;;;;;;5083967;28;19924;-74
2022/10/16 01:40:57;;;;;;;;;;;15.70;99.90;;;;;;5084691;28;19944;-73
2022/10/16 01:43:27;;;;;;;;;;;15.70;99.90;;;;;;5068496;28;19923;-73
2022/10/16 01:45:53;;;;;;;;;;;15.70;99.90;;;;;;5068384;28;19913;-73
2022/10/16 01:48:19;;;;;;;;;;;15.70;99.90;;;;;;5084068;28;19984;-74
2022/10/16 01:51:00;;;;;;;;;;;15.70;99.90;;;;;;5067685;28;19954;-73
2022/10/16 01:53:25;;;;;;;;;;;15.70;99.90;;;;;;5084367;28;19940;-73
2022/10/16 01:55:51;;;;;;;;;;;15.70;99.90;;;;;;5067572;28;19916;-73
2022/10/16 01:58:17;;;;;;;;;;;15.70;99.90;;;;;;5083970;28;20037;-74
2022/10/16 02:00:44;;;;;;;;;;;15.70;99.90;;;;;;5085462;28;19916;-74
2022/10/16 02:03:10;;;;;;;;;;;15.70;99.90;;;;;;5067245;28;19916;-73
2022/10/16 02:05:46;;;;;;;;;;;15.70;99.90;;;;;;5067551;28;19919;-73
2022/10/16 02:08:11;;;;;;;;;;;15.70;99.90;;;;;;5083309;28;19908;-74
2022/10/16 02:10:37;;;;;;;;;;;15.70;99.90;;;;;;5067220;28;20119;-74
2022/10/16 02:13:16;;;;;;;;;;;15.70;99.90;;;;;;5085170;28;19908;-75
2022/10/16 02:15:41;;;;;;;;;;;15.70;99.90;;;;;;5084037;28;19983;-74
2022/10/16 02:18:07;;;;;;;;;;;15.70;99.90;;;;;;5084595;28;19916;-75
2022/10/16 02:20:48;;;;;;;;;;;15.70;99.90;;;;;;5083921;28;19940;-74
2022/10/16 02:23:16;;;;;;;;;;;15.80;99.90;;;;;;5084082;28;20142;-75
2022/10/16 02:25:42;;;;;;;;;;;15.70;99.90;;;;;;5066393;28;19920;-74
2022/10/16 02:28:17;;;;;;;;;;;15.70;99.90;;;;;;5067075;28;19947;-74
2022/10/16 02:30:51;;;;;;;;;;;15.80;99.90;;;;;;5084448;28;19975;-75
2022/10/16 02:33:16;;;;;;;;;;;15.70;99.90;;;;;;5068346;28;19917;-74
2022/10/16 02:35:43;;;;;;;;;;;15.70;99.90;;;;;;5067432;28;20260;-74
2022/10/16 02:38:08;;;;;;;;;;;15.70;99.90;;;;;;5067092;28;20140;-74
2022/10/16 02:40:34;;;;;;;;;;;15.70;99.90;;;;;;5067185;28;19912;-74
2022/10/16 02:43:00;;;;;;;;;;;15.70;99.90;;;;;;5067262;28;20230;-74
2022/10/16 02:45:25;;;;;;;;;;;15.70;99.90;;;;;;5085142;28;19912;-73
2022/10/16 02:47:51;;;;;;;;;;;15.70;99.90;;;;;;5084628;28;19962;-73
2022/10/16 02:50:17;;;;;;;;;;;15.70;99.90;;;;;;5084697;28;20226;-73
2022/10/16 02:52:43;;;;;;;;;;;15.70;99.90;;;;;;5084774;28;19909;-73
2022/10/16 02:55:08;;;;;;;;;;;15.70;99.90;;;;;;5084332;28;19908;-75
2022/10/16 02:57:36;;;;;;;;;;;15.70;99.90;;;;;;5084550;28;19912;-74
2022/10/16 03:00:04;;;;;;;;;;;15.70;99.90;;;;;;5084850;28;19917;-74
2022/10/16 03:02:29;;;;;;;;;;;15.60;99.90;;;;;;5084410;28;19912;-74
2022/10/16 03:04:55;;;;;;;;;;;15.70;99.90;;;;;;5084267;28;19943;-74
2022/10/16 03:07:21;;;;;;;;;;;15.60;99.90;;;;;;5084157;28;19930;-74
2022/10/16 03:09:46;;;;;;;;;;;15.60;99.90;;;;;;5082329;28;19966;-73
2022/10/16 03:12:12;;;;;;;;;;;15.70;99.90;;;;;;5083068;28;19920;-74
2022/10/16 03:14:39;;;;;;;;;;;15.60;99.90;;;;;;5084274;28;19908;-74
2022/10/16 03:17:05;;;;;;;;;;;15.60;99.90;;;;;;5084040;28;19909;-75
2022/10/16 03:19:31;;;;;;;;;;;15.60;99.90;;;;;;5084085;28;20196;-74
2022/10/16 03:21:57;;;;;;;;;;;15.60;99.90;;;;;;5082524;28;19916;-74
2022/10/16 03:24:22;;;;;;;;;;;15.60;99.90;;;;;;5083797;28;19912;-73
2022/10/16 03:26:48;;;;;;;;;;;15.60;99.90;;;;;;5083613;28;19984;-74
2022/10/16 03:29:14;;;;;;;;;;;15.60;99.90;;;;;;5083823;28;19908;-74
2022/10/16 03:31:39;;;;;;;;;;;15.70;99.90;;;;;;5083794;28;19983;-75
2022/10/16 03:34:05;;;;;;;;;;;15.70;99.90;;;;;;5083843;28;20143;-73
2022/10/16 03:36:31;;;;;;;;;;;15.60;99.90;;;;;;5083312;28;19913;-74
2022/10/16 03:38:56;;;;;;;;;;;15.60;99.90;;;;;;5082942;28;20227;-73
2022/10/16 03:41:22;;;;;;;;;;;15.60;99.90;;;;;;5083747;28;19916;-73
2022/10/16 03:43:48;;;;;;;;;;;15.70;99.90;;;;;;5083572;28;20172;-74
2022/10/16 03:46:13;;;;;;;;;;;15.60;99.90;;;;;;5083323;28;19918;-73
2022/10/16 03:48:39;;;;;;;;;;;15.70;99.90;;;;;;5083546;28;19944;-74
2022/10/16 03:51:05;;;;;;;;;;;15.70;99.90;;;;;;5083459;28;19984;-73
2022/10/16 03:53:31;;;;;;;;;;;15.70;99.90;;;;;;5081844;28;19909;-74
2022/10/16 03:55:57;;;;;;;;;;;15.70;99.90;;;;;;5082479;28;19916;-74
2022/10/16 03:58:22;;;;;;;;;;;15.70;99.90;;;;;;5082681;28;19976;-75
2022/10/16 04:00:48;;;;;;;;;;;15.70;99.90;;;;;;5082656;28;19938;-73
2022/10/16 04:03:14;;;;;;;;;;;15.60;99.90;;;;;;5082671;28;19916;-73
2022/10/16 04:05:39;;;;;;;;;;;15.60;99.90;;;;;;5064862;28;19919;-73
2022/10/16 04:08:05;;;;;;;;;;;15.60;99.90;;;;;;5082215;28;20115;-74
2022/10/16 04:10:31;;;;;;;;;;;15.60;99.90;;;;;;5081789;28;19944;-74
2022/10/16 04:12:56;;;;;;;;;;;15.50;99.90;;;;;;5082688;28;20154;-74
2022/10/16 04:15:23;;;;;;;;;;;15.60;99.90;;;;;;5081604;28;19920;-73
2022/10/16 04:17:48;;;;;;;;;;;15.60;99.90;;;;;;5060890;28;19916;-73
2022/10/16 04:20:14;;;;;;;;;;;15.60;99.90;;;;;;5062470;28;20120;-73
2022/10/16 04:22:39;;;;;;;;;;;15.60;99.90;;;;;;5062084;28;19931;-73
2022/10/16 04:25:05;;;;;;;;;;;15.60;99.90;;;;;;5062265;28;19925;-74
2022/10/16 04:27:31;;;;;;;;;;;15.60;99.90;;;;;;5064567;28;20182;-73
2022/10/16 04:29:58;;;;;;;;;;;15.50;99.90;;;;;;5082034;28;19920;-74
2022/10/16 04:32:24;;;;;;;;;;;15.50;99.90;;;;;;5081206;28;20115;-74
2022/10/16 04:34:49;;;;;;;;;;;15.50;99.90;;;;;;5082182;28;19908;-74
2022/10/16 04:37:15;;;;;;;;;;;15.50;99.90;;;;;;5081775;28;20268;-74
2022/10/16 04:39:41;;;;;;;;;;;15.40;99.90;;;;;;5082192;28;20212;-74
2022/10/16 04:42:06;;;;;;;;;;;15.50;99.90;;;;;;5082224;28;20100;-74
2022/10/16 04:44:32;;;;;;;;;;;15.40;99.90;;;;;;5082151;28;20097;-74
2022/10/16 04:46:57;;;;;;;;;;;15.40;99.90;;;;;;5081608;28;20107;-74
2022/10/16 04:49:23;;;;;;;;;;;15.40;99.90;;;;;;5081345;28;19908;-74
2022/10/16 04:51:49;;;;;;;;;;;15.40;99.90;;;;;;5082073;28;19915;-74
2022/10/16 04:54:14;;;;;;;;;;;15.40;99.90;;;;;;5082597;28;19936;-74
2022/10/16 04:56:46;;;;;;;;;;;15.40;99.90;;;;;;5082236;28;19943;-74
2022/10/16 04:59:15;;;;;;;;;;;15.40;99.90;;;;;;5082521;28;19954;-73
2022/10/16 05:01:41;;;;;;;;;;;15.40;99.90;;;;;;5081117;28;20192;-73
2022/10/16 05:04:06;;;;;;;;;;;15.40;99.90;;;;;;5082424;28;19926;-73
2022/10/16 05:06:32;;;;;;;;;;;15.40;99.90;;;;;;5082095;28;19909;-73
2022/10/16 05:08:58;;;;;;;;;;;15.40;99.90;;;;;;5082327;28;19908;-73
2022/10/16 05:11:23;;;;;;;;;;;15.40;99.90;;;;;;5082533;28;19946;-73
2022/10/16 05:13:49;;;;;;;;;;;15.40;99.90;;;;;;5082346;28;19908;-73
2022/10/16 05:16:14;;;;;;;;;;;15.40;99.90;;;;;;5081914;28;19913;-73
2022/10/16 05:18:40;;;;;;;;;;;15.40;99.90;;;;;;5082196;28;19919;-73
2022/10/16 05:21:06;;;;;;;;;;;15.40;99.90;;;;;;5079899;28;19908;-73
2022/10/16 05:23:32;;;;;;;;;;;15.40;99.90;;;;;;5081989;28;19916;-73
2022/10/16 05:25:58;;;;;;;;;;;15.40;99.90;;;;;;5082076;28;19936;-73
2022/10/16 05:28:27;;;;;;;;;;;15.40;99.90;;;;;;5080909;28;19950;-73
2022/10/16 05:30:53;;;;;;;;;;;15.40;99.90;;;;;;5080792;28;20069;-73
2022/10/16 05:33:22;;;;;;;;;;;15.40;99.90;;;;;;5082071;28;19916;-73
2022/10/16 05:35:48;;;;;;;;;;;15.40;99.90;;;;;;5082004;28;20205;-73
2022/10/16 05:38:13;;;;;;;;;;;15.30;99.90;;;;;;5081573;28;19913;-74
2022/10/16 05:40:39;;;;;;;;;;;15.30;99.90;;;;;;5081934;28;19919;-73
2022/10/16 05:43:05;;;;;;;;;;;15.30;99.90;;;;;;5081902;28;19912;-73
2022/10/16 05:45:30;;;;;;;;;;;15.30;99.90;;;;;;5080525;28;20102;-73
2022/10/16 05:47:56;;;;;;;;;;;15.30;99.90;;;;;;5082162;28;19919;-75
2022/10/16 05:50:22;;;;;;;;;;;15.30;99.90;;;;;;5081821;28;19916;-75
2022/10/16 05:52:47;;;;;;;;;;;15.30;99.90;;;;;;5071943;28;19913;-74
2022/10/16 05:55:13;;;;;;;;;;;15.40;99.90;;;;;;5068964;28;19912;-75
2022/10/16 05:57:38;;;;;;;;;;;15.40;99.90;;;;;;5070377;28;19919;-75
2022/10/16 06:00:05;;;;;;;;;;;15.30;99.90;;;;;;5074322;28;19920;-76
2022/10/16 06:02:31;;;;;;;;;;;15.30;99.90;;;;;;5084286;28;19942;-75
2022/10/16 06:04:56;;;;;;;;;;;15.30;99.90;;;;;;5085243;28;19920;-75
2022/10/16 06:07:22;;;;;;;;;;;15.30;99.90;;;;;;5084711;28;19928;-74
2022/10/16 06:09:49;;;;;;;;;;;15.30;99.90;;;;;;5084547;28;19908;-74
2022/10/16 06:12:15;;;;;;;;;;;15.30;99.90;;;;;;5084176;28;19908;-75
2022/10/16 06:14:41;;;;;;;;;;;15.30;99.90;;;;;;5067573;28;19930;-74
2022/10/16 06:17:07;;;;;;;;;;;15.30;99.90;;;;;;5084917;28;19948;-75
2022/10/16 06:19:32;;;;;;;;;;;15.40;99.90;;;;;;5085074;28;19916;-76
2022/10/16 06:21:58;;;;;;;;;;;15.40;99.90;;;;;;5085145;28;19912;-74
2022/10/16 06:24:24;;;;;;;;;;;15.40;99.90;;;;;;5084366;28;19923;-74
2022/10/16 06:26:50;;;;;;;;;;;15.40;99.90;;;;;;5092668;28;19912;-74
2022/10/16 06:29:16;;;;;;;;;;;15.40;99.90;;;;;;5084862;28;19909;-74
2022/10/16 06:31:41;;;;;;;;;;;15.40;99.90;;;;;;5084074;28;19984;-74
2022/10/16 06:34:11;;;;;;;;;;;15.40;99.90;;;;;;5077528;28;19920;-75
2022/10/16 06:36:37;;;;;;;;;;;15.40;99.90;;;;;;5082768;28;19921;-75
2022/10/16 06:39:04;;;;;;;;;;;15.40;99.90;;;;;;5048622;28;19908;-75
2022/10/16 06:41:30;;;;;;;;;;;15.50;99.90;;;;;;5083345;28;19908;-75
2022/10/16 06:43:55;;;;;;;;;;;15.50;99.90;;;;;;5084564;28;20154;-75
2022/10/16 06:46:22;;;;;;;;;;;15.40;99.90;;;;;;5077973;28;19971;-76
2022/10/16 06:48:48;;;;;;;;;;;15.50;99.90;;;;;;5065949;28;19965;-75
2022/10/16 06:51:18;;;;;;;;;;;15.50;99.90;;;;;;5084199;28;19951;-75
2022/10/16 06:53:45;;;;;;;;;;;15.50;99.90;;;;;;5083184;28;19991;-76
2022/10/16 06:56:18;;;;;;;;;;;15.50;99.90;;;;;;5099937;28;19931;-75
2022/10/16 06:58:44;;;;;;;;;;;15.60;99.90;;;;;;5101349;28;20164;-75
2022/10/16 07:01:10;;;;;;;;;;;15.50;99.90;;;;;;5083679;28;19908;-76
2022/10/16 07:03:39;;;;;;;;;;;15.60;99.90;;;;;;5082701;28;20107;-75
2022/10/16 07:06:06;;;;;;;;;;;15.60;99.90;;;;;;5075933;28;19916;-77
2022/10/16 07:08:36;;;;;;;;;;;15.60;99.90;;;;;;5081327;28;19920;-75
2022/10/16 07:11:03;;;;;;;;;;;15.60;99.90;;;;;;5077333;28;19952;-74
2022/10/16 07:13:28;;;;;;;;;;;15.60;99.90;;;;;;5079753;28;19912;-74
2022/10/16 07:15:54;;;;;;;;;;;15.60;99.90;;;;;;5083612;28;19935;-74
2022/10/16 07:18:20;;;;;;;;;;;15.70;99.90;;;;;;5082891;28;19909;-73
2022/10/16 07:20:45;;;;;;;;;;;15.60;99.90;;;;;;5083846;28;19908;-74
2022/10/16 07:23:11;;;;;;;;;;;15.70;99.90;;;;;;5083785;28;19970;-73
2022/10/16 07:25:38;;;;;;;;;;;15.70;99.90;;;;;;5082038;28;20135;-74
2022/10/16 07:28:03;;;;;;;;;;;15.70;99.90;;;;;;5083339;28;19950;-73
2022/10/16 07:30:29;;;;;;;;;;;15.70;99.90;;;;;;5083053;28;19909;-73
2022/10/16 07:32:55;;;;;;;;;;;15.70;99.90;;;;;;5083650;28;19909;-74
2022/10/16 07:35:20;;;;;;;;;;;15.80;99.90;;;;;;5083667;28;19909;-74
2022/10/16 07:37:46;;;;;;;;;;;15.80;99.90;;;;;;5081935;28;20191;-74
2022/10/16 07:40:12;;;;;;;;;;;15.80;99.90;;;;;;5082509;28;19916;-73
2022/10/16 07:42:37;;;;;;;;;;;15.90;99.90;;;;;;5065585;28;19909;-74
2022/10/16 07:45:03;;;;;;;;;;;15.90;99.90;;;;;;5082542;28;19913;-76
2022/10/16 07:47:29;;;;;;;;;;;15.90;99.90;;;;;;5083994;28;19958;-78
2022/10/16 07:49:55;;;;;;;;;;;15.90;99.90;;;;;;5083061;28;19912;-76
2022/10/16 07:52:20;;;;;;;;;;;16.00;99.90;;;;;;5083022;28;19915;-73
2022/10/16 07:54:46;;;;;;;;;;;16.10;99.90;;;;;;5083433;28;19908;-72
2022/10/16 07:57:19;;;;;;;;;;;16.10;99.90;;;;;;5082976;28;19920;-75
2022/10/16 07:59:48;;;;;;;;;;;16.20;99.90;;;;;;5057359;28;19981;-75
2022/10/16 08:02:13;;;;;;;;;;;16.30;99.90;;;;;;5062283;28;19972;-71
2022/10/16 08:04:39;;;;;;;;;;;16.40;99.90;;;;;;5063240;28;20119;-71
2022/10/16 08:07:07;;;;;;;;;;;16.40;99.90;;;;;;5062922;28;19909;-72
2022/10/16 08:09:32;;;;;;;;;;;16.50;99.90;;;;;;5062955;28;19909;-71
2022/10/16 08:11:58;;;;;;;;;;;16.60;99.90;;;;;;5082519;28;20229;-71
2022/10/16 08:14:24;;;;;;;;;;;16.60;99.90;;;;;;5082751;28;20097;-71
2022/10/16 08:16:49;;;;;;;;;;;16.60;99.90;;;;;;5082683;28;19965;-71
2022/10/16 08:19:15;;;;;;;;;;;16.60;99.90;;;;;;5082815;28;19908;-72
2022/10/16 08:21:41;;;;;;;;;;;16.60;99.90;;;;;;5082619;28;19976;-71
2022/10/16 08:24:06;;;;;;;;;;;16.60;99.90;;;;;;5081074;28;19916;-72
2022/10/16 08:26:32;;;;;;;;;;;16.60;99.90;;;;;;5082449;28;20211;-72
2022/10/16 08:28:58;;;;;;;;;;;16.70;99.90;;;;;;5076334;28;20116;-75
2022/10/16 08:31:23;;;;;;;;;;;16.70;99.90;;;;;;5073618;28;19912;-75
2022/10/16 08:33:49;;;;;;;;;;;16.80;99.90;;;;;;5064996;28;19908;-75
2022/10/16 08:36:15;;;;;;;;;;;16.90;99.90;;;;;;5082414;28;19971;-73
2022/10/16 08:38:41;;;;;;;;;;;17.00;99.90;;;;;;5081248;28;20160;-73
2022/10/16 08:41:09;;;;;;;;;;;17.10;99.90;;;;;;5082468;28;19916;-74
2022/10/16 08:44:22;;;;;;;;;;;17.20;99.90;;;;;;5082405;28;19954;-73
2022/10/16 08:47:06;;;;;;;;;;;17.30;99.90;;;;;;5050812;28;20111;-73
2022/10/16 08:49:32;;;;;;;;;;;17.40;99.90;;;;;;5077789;28;20100;-73
2022/10/16 08:51:57;;;;;;;;;;;17.50;99.90;;;;;;5082022;28;19920;-73
2022/10/16 08:54:34;;;;;;;;;;;17.60;99.90;;;;;;5081552;28;20199;-71
2022/10/16 08:57:07;;;;;;;;;;;17.60;99.90;;;;;;5079414;28;20003;-71
2022/10/16 08:59:33;;;;;;;;;;;17.50;99.90;;;;;;5058710;28;19915;-75
2022/10/16 09:02:01;;;;;;;;;;;17.50;99.90;;;;;;5075366;28;19916;-71
2022/10/16 09:05:14;;;;;;;;;;;17.60;99.90;;;;;;5078272;28;19999;-73
2022/10/16 09:07:49;;;;;;;;;;;17.70;99.90;;;;;;4999902;28;19920;-73
2022/10/16 09:10:36;;;;;;;;;;;17.80;99.90;;;;;;4999678;28;19991;-75
2022/10/16 09:13:12;;;;;;;;;;;17.90;99.90;;;;;;5047308;28;20148;-78
2022/10/16 09:15:37;;;;;;;;;;;17.90;99.90;;;;;;5080627;28;20217;-71
2022/10/16 09:18:13;;;;;;;;;;;18.00;99.90;;;;;;5081342;28;20207;-70
2022/10/16 09:20:56;;;;;;;;;;;18.00;99.90;;;;;;5080886;28;19908;-72
2022/10/16 09:23:24;;;;;;;;;;;18.10;99.90;;;;;;5080353;28;19917;-76
2022/10/16 09:25:49;;;;;;;;;;;18.10;99.90;;;;;;5082787;28;19913;-73
2022/10/16 09:28:16;;;;;;;;;;;18.10;99.90;;;;;;5081982;28;20151;-71
2022/10/16 09:30:42;;;;;;;;;;;18.10;99.90;;;;;;5072275;28;19955;-73
2022/10/16 09:33:09;;;;;;;;;;;18.20;99.90;;;;;;5057429;28;19909;-76
2022/10/16 09:35:38;;;;;;;;;;;18.10;99.90;;;;;;5046392;28;19909;-78
2022/10/16 09:38:04;;;;;;;;;;;18.10;99.90;;;;;;5064630;28;19912;-76
2022/10/16 09:40:31;;;;;;;;;;;18.10;99.90;;;;;;5065518;28;19940;-75
2022/10/16 09:43:02;;;;;;;;;;;18.10;99.90;;;;;;5083873;28;20262;-82
2022/10/16 09:45:27;;;;;;;;;;;18.00;99.90;;;;;;5052452;28;20142;-79
2022/10/16 09:47:53;;;;;;;;;;;18.00;99.90;;;;;;5065294;28;19908;-75
2022/10/16 09:50:26;;;;;;;;;;;18.00;99.90;;;;;;5065505;28;19908;-76
2022/10/16 09:53:12;;;;;;;;;;;18.00;99.90;;;;;;5064210;28;19925;-76
2022/10/16 09:55:48;;;;;;;;;;;18.00;99.90;;;;;;5065646;28;20019;-74
2022/10/16 09:58:13;;;;;;;;;;;18.00;99.90;;;;;;5065268;28;20182;-76
2022/10/16 10:00:39;;;;;;;;;;;17.90;99.90;;;;;;5074780;28;20234;-78
2022/10/16 10:03:10;;;;;;;;;;;17.90;99.90;;;;;;5049615;28;19963;-78
2022/10/16 10:05:35;;;;;;;;;;;18.00;99.90;;;;;;5085960;28;19912;-77
2022/10/16 10:08:05;;;;;;;;;;;18.00;99.90;;;;;;5085184;28;20004;-72
2022/10/16 10:10:39;;;;;;;;;;;18.10;99.90;;;;;;5084687;28;19962;-80
2022/10/16 10:13:17;;;;;;;;;;;18.10;99.90;;;;;;5067714;28;19908;-76
2022/10/16 10:15:42;;;;;;;;;;;18.20;99.90;;;;;;5067571;28;20196;-76
2022/10/16 10:18:16;;;;;;;;;;;18.20;99.90;;;;;;5083667;28;19908;-74
2022/10/16 10:20:41;;;;;;;;;;;18.30;99.90;;;;;;5086237;28;19931;-72
2022/10/16 10:23:37;;;;;;;;;;;18.40;99.90;;;;;;5084534;28;19920;-75
2022/10/16 10:26:23;;;;;;;;;;;18.40;99.90;;;;;;5059059;28;20002;-73
2022/10/16 10:29:01;;;;;;;;;;;18.60;99.90;;;;;;5063502;28;20353;-74
2022/10/16 10:31:35;;;;;;;;;;;18.70;99.90;;;;;;5074556;28;19923;-70
2022/10/16 10:34:16;;;;;;;;;;;18.70;99.90;;;;;;5070118;28;20150;-73
2022/10/16 10:36:42;;;;;;;;;;;18.70;99.90;;;;;;5074263;28;19922;-77
2022/10/16 10:39:17;;;;;;;;;;;18.80;99.90;;;;;;5083194;28;19931;-70
2022/10/16 10:42:07;;;;;;;;;;;18.80;99.90;;;;;;5066671;28;19912;-69
2022/10/16 10:44:51;;;;;;;;;;;18.70;99.90;;;;;;5084497;28;19915;-74
2022/10/16 10:47:25;;;;;;;;;;;18.70;99.90;;;;;;5065640;28;19952;-74
2022/10/16 10:49:57;;;;;;;;;;;18.70;99.90;;;;;;5079028;28;19920;-73
2022/10/16 10:52:34;;;;;;;;;;;18.70;99.90;;;;;;5082732;28;20228;-73
2022/10/16 10:55:03;;;;;;;;;;;18.60;99.90;;;;;;5080461;28;20172;-73
2022/10/16 10:57:40;;;;;;;;;;;18.70;99.90;;;;;;5077794;28;19916;-74
2022/10/16 11:00:20;;;;;;;;;;;18.70;99.90;;;;;;5066600;28;19916;-75
2022/10/16 11:03:07;;;;;;;;;;;18.90;99.90;;;;;;5073862;28;19908;-80
2022/10/16 11:05:49;;;;;;;;;;;18.90;99.90;;;;;;5064564;28;19920;-76
2022/10/16 11:08:27;;;;;;;;;;;19.00;99.90;;;;;;5062304;28;20254;-75
2022/10/16 11:11:00;;;;;;;;;;;19.00;99.90;;;;;;5063181;28;19944;-77
2022/10/16 11:14:00;;;;;;;;;;;19.20;99.90;;;;;;5058848;28;20262;-71
2022/10/16 11:16:31;;;;;;;;;;;19.30;99.90;;;;;;5062240;28;19909;-72
2022/10/16 11:19:13;;;;;;;;;;;19.40;99.90;;;;;;5062600;28;19916;-72
2022/10/16 11:21:48;;;;;;;;;;;19.40;99.90;;;;;;5077204;28;19987;-72
2022/10/16 11:24:37;;;;;;;;;;;19.40;99.90;;;;;;5033678;28;19913;-72
2022/10/16 11:27:06;;;;;;;;;;;19.50;99.90;;;;;;5061709;28;19987;-72
2022/10/16 11:29:33;;;;;;;;;;;19.60;99.90;;;;;;5062568;28;19979;-72
2022/10/16 11:32:03;;;;;;;;;;;19.80;99.90;;;;;;5068501;28;20123;-75
2022/10/16 11:34:33;;;;;;;;;;;19.90;99.90;;;;;;5073059;28;19920;-72
2022/10/16 11:37:10;;;;;;;;;;;20.20;99.90;;;;;;5082803;28;19912;-80
2022/10/16 11:39:35;;;;;;;;;;;20.40;99.90;;;;;;5067128;28;19908;-80
2022/10/16 11:42:07;;;;;;;;;;;20.60;99.90;;;;;;5067549;28;20238;-81
2022/10/16 11:45:02;;;;;;;;;;;20.80;99.90;;;;;;5084249;28;19982;-82
2022/10/16 11:47:35;;;;;;;;;;;20.90;99.90;;;;;;5084405;28;19915;-75
2022/10/16 11:50:38;;;;;;;;;;;21.10;99.90;;;;;;5082103;28;19915;-78
2022/10/16 11:53:36;;;;;;;;;;;21.30;99.90;;;;;;5086935;28;19913;-82
2022/10/16 11:56:01;;;;;;;;;;;21.50;99.90;;;;;;5064118;28;19966;-87
2022/10/16 11:58:34;;;;;;;;;;;21.90;99.90;;;;;;5064841;28;20326;-83
2022/10/16 12:01:08;;;;;;;;;;;22.50;99.90;;;;;;5064686;28;19909;-73
2022/10/16 12:03:34;;;;;;;;;;;23.10;99.90;;;;;;5077532;28;19935;-73
2022/10/16 12:06:15;;;;;;;;;;;23.70;99.90;;;;;;5082001;28;19943;-80
2022/10/16 12:08:41;;;;;;;;;;;23.90;99.90;;;;;;5083224;28;19948;-83
2022/10/16 12:11:24;;;;;;;;;;;24.10;99.90;;;;;;5082678;28;19925;-82
2022/10/16 12:13:49;;;;;;;;;;;25.30;99.90;;;;;;5063754;28;19909;-79
2022/10/16 12:16:15;;;;;;;;;;;26.70;99.90;;;;;;5081464;28;19920;-76
2022/10/16 12:18:42;;;;;;;;;;;28.00;99.90;;;;;;5081144;28;19912;-74
2022/10/16 12:21:08;;;;;;;;;;;29.50;99.90;;;;;;5079698;28;19916;-73
2022/10/16 12:23:38;;;;;;;;;;;30.70;97.40;;;;;;5062871;28;19912;-74
2022/10/16 12:26:04;;;;;;;;;;;31.80;91.90;;;;;;5079438;28;19923;-74
2022/10/16 12:28:31;;;;;;;;;;;32.70;72.60;;;;;;5080595;28;19908;-74
2022/10/16 12:31:01;;;;;;;;;;;33.70;67.60;;;;;;5081574;28;19923;-74
2022/10/16 12:33:31;;;;;;;;;;;34.40;54.50;;;;;;5074402;28;19921;-74
2022/10/16 12:35:58;;;;;;;;;;;35.30;50.10;;;;;;5081271;28;19935;-72
2022/10/16 12:38:52;;;;;;;;;;;36.00;37.80;;;;;;5078159;28;19920;-78
2022/10/16 12:41:34;;;;;;;;;;;36.60;34.40;;;;;;5073233;28;19979;-76
2022/10/16 12:44:03;;;;;;;;;;;37.30;22.70;;;;;;5059624;28;20120;-77
2022/10/16 12:46:28;;;;;;;;;;;37.10;21.20;;;;;;5080572;28;19962;-77
2022/10/16 12:49:19;;;;;;;;;;;36.90;26.60;;;;;;5082000;28;19916;-77
2022/10/16 12:51:45;;;;;;;;;;;37.40;23.70;;;;;;5064928;28;19913;-76
2022/10/16 12:54:15;;;;;;;;;;;38.20;15.20;;;;;;5081932;28;19916;-72
2022/10/16 12:57:06;;;;;;;;;;;38.00;16.90;;;;;;5080818;28;19908;-74
2022/10/16 12:59:47;;;;;;;;;;;37.20;17.60;;;;;;5079234;28;19957;-76
2022/10/16 13:02:43;;;;;;;;;;;35.10;24.60;;;;;;5082198;28;19969;-74
2022/10/16 13:05:12;;;;;;;;;;;33.30;36.90;;;;;;5065417;28;19920;-75
2022/10/16 13:08:00;;;;;;;;;;;31.50;52.60;;;;;;5081424;28;19913;-72
2022/10/16 13:10:38;;;;;;;;;;;30.40;59.20;;;;;;5082254;28;20234;-74
2022/10/16 13:13:11;;;;;;;;;;;29.10;73.90;;;;;;5084023;28;19908;-76
2022/10/16 13:16:06;;;;;;;;;;;28.40;85.60;;;;;;5068207;28;19923;-75
2022/10/16 13:18:35;;;;;;;;;;;28.10;93.00;;;;;;5080681;28;20301;-75
2022/10/16 13:21:10;;;;;;;;;;;28.80;88.20;;;;;;5085482;28;19931;-73
2022/10/16 13:23:39;;;;;;;;;;;29.50;74.10;;;;;;5084626;28;19916;-71
2022/10/16 13:26:13;;;;;;;;;;;30.60;69.20;;;;;;5084365;28;19981;-76
2022/10/16 13:28:39;;;;;;;;;;;31.60;53.30;;;;;;5083636;28;19931;-76
2022/10/16 13:31:04;;;;;;;;;;;32.10;47.30;;;;;;5078100;28;19913;-72
2022/10/16 13:33:35;;;;;;;;;;;33.10;40.00;;;;;;5081451;28;19920;-72
2022/10/16 13:36:01;;;;;;;;;;;34.30;28.30;;;;;;5066423;28;19912;-72
2022/10/16 13:38:28;;;;;;;;;;;35.00;21.50;;;;;;5085502;28;20238;-71
2022/10/16 13:41:03;;;;;;;;;;;35.30;16.40;;;;;;5085460;28;19952;-71
2022/10/16 13:43:32;;;;;;;;;;;34.90;16.80;;;;;;5084633;28;19908;-72
2022/10/16 13:46:04;;;;;;;;;;;34.40;22.20;;;;;;5067680;28;19931;-71
2022/10/16 13:48:30;;;;;;;;;;;35.00;19.20;;;;;;5085228;28;19915;-71
2022/10/16 13:51:07;;;;;;;;;;;35.60;14.70;;;;;;5085119;28;20114;-72
2022/10/16 13:53:33;;;;;;;;;;;35.70;14.80;;;;;;5085000;28;19923;-72
2022/10/16 13:56:02;;;;;;;;;;;36.30;12.70;;;;;;5084961;28;19919;-71
2022/10/16 13:58:27;;;;;;;;;;;36.50;9.50;;;;;;5083265;28;19909;-71
2022/10/16 14:01:18;;;;;;;;;;;36.40;8.60;;;;;;5083803;28;19928;-71
2022/10/16 14:03:43;;;;;;;;;;;35.90;11.70;;;;;;5073679;28;19913;-72
2022/10/16 14:06:18;;;;;;;;;;;36.10;10.00;;;;;;5079038;28;19930;-72
2022/10/16 14:08:45;;;;;;;;;;;35.70;10.30;;;;;;5075896;28;19913;-71
2022/10/16 14:11:11;;;;;;;;;;;34.10;15.30;;;;;;5083751;28;19915;-74
2022/10/16 14:13:38;;;;;;;;;;;32.60;21.50;;;;;;5082825;28;19924;-74
2022/10/16 14:16:08;;;;;;;;;;;31.00;28.80;;;;;;5084149;28;19931;-80
2022/10/16 14:18:34;;;;;;;;;;;29.40;42.00;;;;;;5067246;28;19976;-79
2022/10/16 14:21:04;;;;;;;;;;;28.10;55.90;;;;;;5067342;28;19908;-79
2022/10/16 14:23:33;;;;;;;;;;;26.90;75.10;;;;;;5067360;28;20112;-76
2022/10/16 14:26:13;;;;;;;;;;;26.00;92.30;;;;;;5067297;28;19931;-77
2022/10/16 14:28:40;;;;;;;;;;;25.50;93.70;;;;;;5084604;28;20300;-78
2022/10/16 14:31:25;;;;;;;;;;;25.00;95.90;;;;;;5066952;28;20146;-76